Time;durP1;ratioP1;P1;durP2;ratioP2;P2;SDS_P1;SDS_P2;PMS_P1;PMS_P2;Temp;Humidity;BMP_temperature;BMP_pressure;BME280_temperature;BME280_humidity;BME280_pressure;Samples;Min_cycle;Max_cycle;Signal;HPM_P1;HPM_P2
2022/10/26 00:01:43;;;;;;;12.13;4.53;;;;;;;;;;5073084;28;20492;-45
2022/10/26 00:04:09;;;;;;;5.20;4.57;;;;;;;;;;5073130;28;20932;-45
2022/10/26 00:06:35;;;;;;;7.27;3.47;;;;;;;;;;5073957;28;20405;-45
2022/10/26 00:09:01;;;;;;;8.03;3.97;;;;;;;;;;5073000;28;20512;-43
2022/10/26 00:11:28;;;;;;;4.90;3.80;;;;;;;;;;5073279;28;20424;-44
2022/10/26 00:13:54;;;;;;;5.50;3.50;;;;;;;;;;5073398;28;20405;-45
2022/10/26 00:16:22;;;;;;;4.50;3.83;;;;;;;;;;5073785;28;20404;-44
2022/10/26 00:18:48;;;;;;;10.70;4.00;;;;;;;;;;5073553;28;20549;-45
2022/10/26 00:21:14;;;;;;;6.77;3.90;;;;;;;;;;5073183;28;20474;-45
2022/10/26 00:23:40;;;;;;;5.33;3.30;;;;;;;;;;5073347;28;20420;-45
2022/10/26 00:26:06;;;;;;;6.60;3.53;;;;;;;;;;5074182;28;20414;-45
2022/10/26 00:28:32;;;;;;;3.70;3.20;;;;;;;;;;5073647;28;20914;-45
2022/10/26 00:31:02;;;;;;;4.27;3.87;;;;;;;;;;5073143;28;20877;-42
2022/10/26 00:33:29;;;;;;;8.50;4.23;;;;;;;;;;5071836;28;20405;-42
2022/10/26 00:35:55;;;;;;;10.70;4.53;;;;;;;;;;5071740;28;20493;-43
2022/10/26 00:38:21;;;;;;;7.17;3.87;;;;;;;;;;5071930;28;20409;-42
2022/10/26 00:40:47;;;;;;;6.27;3.70;;;;;;;;;;5071293;28;20419;-42
2022/10/26 00:43:33;;;;;;;4.90;3.50;;;;;;;;;;5071966;28;20409;-42
2022/10/26 00:46:00;;;;;;;5.00;3.30;;;;;;;;;;5071717;28;20490;-42
2022/10/26 00:48:29;;;;;;;15.03;3.27;;;;;;;;;;5072094;28;20456;-42
2022/10/26 00:50:55;;;;;;;11.07;3.10;;;;;;;;;;5071341;28;20428;-42
2022/10/26 00:53:22;;;;;;;4.37;2.70;;;;;;;;;;5071826;28;20393;-43
2022/10/26 00:55:49;;;;;;;8.37;3.10;;;;;;;;;;5071953;28;20753;-42
2022/10/26 00:58:16;;;;;;;4.73;3.30;;;;;;;;;;5071808;28;20780;-42
2022/10/26 01:00:42;;;;;;;5.90;3.10;;;;;;;;;;5070964;28;20505;-42
2022/10/26 01:03:08;;;;;;;4.10;2.70;;;;;;;;;;5071226;28;20850;-42
2022/10/26 01:05:36;;;;;;;3.60;3.30;;;;;;;;;;5070940;28;20733;-42
2022/10/26 01:08:02;;;;;;;3.37;3.10;;;;;;;;;;5071457;28;20412;-42
2022/10/26 01:10:28;;;;;;;7.70;3.17;;;;;;;;;;5071099;28;20442;-42
2022/10/26 01:12:56;;;;;;;4.50;3.10;;;;;;;;;;5071664;28;20412;-42
2022/10/26 01:15:24;;;;;;;5.97;3.37;;;;;;;;;;5071342;28;20405;-42
2022/10/26 01:17:53;;;;;;;6.10;3.33;;;;;;;;;;5071479;28;20490;-42
2022/10/26 01:20:22;;;;;;;3.70;3.30;;;;;;;;;;5070825;28;20429;-42
2022/10/26 01:22:48;;;;;;;6.03;3.53;;;;;;;;;;5071643;28;20430;-42
2022/10/26 01:25:33;;;;;;;6.03;3.23;;;;;;;;;;5071269;28;20913;-42
2022/10/26 01:28:00;;;;;;;3.20;2.97;;;;;;;;;;5071239;28;20450;-42
2022/10/26 01:30:33;;;;;;;8.13;3.13;;;;;;;;;;5070841;28;20581;-42
2022/10/26 01:33:02;;;;;;;4.30;3.20;;;;;;;;;;5071251;28;20900;-42
2022/10/26 01:35:32;;;;;;;5.53;3.00;;;;;;;;;;5071244;28;20520;-42
2022/10/26 01:38:06;;;;;;;3.23;2.47;;;;;;;;;;5071288;28;20770;-42
2022/10/26 01:40:46;;;;;;;6.90;3.10;;;;;;;;;;5070680;28;20420;-42
2022/10/26 01:43:14;;;;;;;8.70;3.13;;;;;;;;;;5071493;28;20490;-42
2022/10/26 01:45:41;;;;;;;8.77;3.27;;;;;;;;;;5075088;28;20456;-42
2022/10/26 01:48:09;;;;;;;5.27;3.30;;;;;;;;;;5075038;28;20403;-42
2022/10/26 01:50:35;;;;;;;6.10;3.30;;;;;;;;;;5074439;28;20417;-42
2022/10/26 01:53:01;;;;;;;9.33;3.03;;;;;;;;;;5074897;28;20398;-43
2022/10/26 01:55:42;;;;;;;13.47;3.90;;;;;;;;;;5075213;28;20977;-42
2022/10/26 01:58:13;;;;;;;5.43;3.40;;;;;;;;;;5074581;28;20432;-43
2022/10/26 02:00:43;;;;;;;4.50;4.07;;;;;;;;;;5074428;28;20422;-42
2022/10/26 02:03:18;;;;;;;5.67;3.83;;;;;;;;;;5074894;28;20450;-43
2022/10/26 02:06:10;;;;;;;4.03;3.63;;;;;;;;;;5074748;28;20499;-43
2022/10/26 02:08:36;;;;;;;3.30;3.00;;;;;;;;;;5073513;28;20457;-42
2022/10/26 02:11:02;;;;;;;2.77;2.57;;;;;;;;;;5074131;28;20452;-42
2022/10/26 02:14:00;;;;;;;4.90;2.90;;;;;;;;;;5073624;28;20407;-42
2022/10/26 02:16:37;;;;;;;7.00;2.80;;;;;;;;;;5062605;28;20510;-43
2022/10/26 02:19:22;;;;;;;6.40;2.97;;;;;;;;;;5074773;28;20421;-42
2022/10/26 02:21:52;;;;;;;4.60;2.63;;;;;;;;;;5074079;28;20413;-42
2022/10/26 02:24:20;;;;;;;4.77;3.00;;;;;;;;;;5074615;28;20404;-42
2022/10/26 02:26:46;;;;;;;8.53;2.90;;;;;;;;;;5074774;28;20402;-43
2022/10/26 02:29:15;;;;;;;3.17;2.50;;;;;;;;;;5074371;28;20544;-42
2022/10/26 02:31:42;;;;;;;3.57;2.90;;;;;;;;;;5073924;28;20493;-42
2022/10/26 02:34:10;;;;;;;5.60;2.50;;;;;;;;;;5074393;28;20409;-42
2022/10/26 02:36:38;;;;;;;5.93;2.87;;;;;;;;;;5074281;28;20415;-42
2022/10/26 02:39:05;;;;;;;6.30;3.50;;;;;;;;;;5074081;28;20465;-43
2022/10/26 02:41:32;;;;;;;5.30;3.37;;;;;;;;;;5073715;28;20406;-42
2022/10/26 02:44:12;;;;;;;2.87;2.70;;;;;;;;;;5074179;28;20411;-42
2022/10/26 02:46:38;;;;;;;2.83;2.60;;;;;;;;;;5074152;28;20397;-43
2022/10/26 02:49:04;;;;;;;8.47;2.57;;;;;;;;;;5073870;28;20454;-43
2022/10/26 02:51:49;;;;;;;3.40;2.33;;;;;;;;;;5063078;28;20404;-42
2022/10/26 02:54:17;;;;;;;3.73;2.00;;;;;;;;;;5053849;28;20436;-42
2022/10/26 02:56:51;;;;;;;4.90;2.50;;;;;;;;;;5053905;28;20411;-43
2022/10/26 02:59:20;;;;;;;3.03;2.07;;;;;;;;;;5053856;28;20515;-43
2022/10/26 03:01:47;;;;;;;5.53;1.93;;;;;;;;;;5053150;28;20539;-42
2022/10/26 03:04:13;;;;;;;5.73;2.17;;;;;;;;;;5053814;28;20433;-42
2022/10/26 03:06:39;;;;;;;2.70;1.70;;;;;;;;;;5053828;28;20401;-42
2022/10/26 03:09:05;;;;;;;4.30;1.97;;;;;;;;;;5053498;28;20470;-42
2022/10/26 03:11:31;;;;;;;2.57;2.37;;;;;;;;;;5053167;28;20404;-42
2022/10/26 03:13:57;;;;;;;4.17;2.17;;;;;;;;;;5053519;28;20400;-42
2022/10/26 03:16:22;;;;;;;9.43;1.90;;;;;;;;;;5054060;28;20476;-42
2022/10/26 03:18:48;;;;;;;3.97;2.03;;;;;;;;;;5053298;28;20939;-43
2022/10/26 03:21:14;;;;;;;2.90;1.80;;;;;;;;;;5052969;28;20915;-42
2022/10/26 03:23:40;;;;;;;7.97;2.00;;;;;;;;;;5053510;28;20984;-43
2022/10/26 03:26:07;;;;;;;5.20;1.90;;;;;;;;;;5053386;28;20403;-43
2022/10/26 03:28:32;;;;;;;6.83;1.77;;;;;;;;;;5053194;28;20533;-42
2022/10/26 03:30:58;;;;;;;9.10;2.60;;;;;;;;;;5052753;28;20536;-42
2022/10/26 03:33:26;;;;;;;2.67;2.47;;;;;;;;;;5053267;28;20413;-43
2022/10/26 03:35:54;;;;;;;3.50;2.07;;;;;;;;;;5053099;28;20910;-42
2022/10/26 03:38:20;;;;;;;4.07;2.20;;;;;;;;;;5053305;28;20402;-42
2022/10/26 03:40:47;;;;;;;2.70;2.50;;;;;;;;;;5052410;28;20789;-43
2022/10/26 03:43:13;;;;;;;3.43;2.40;;;;;;;;;;5053045;28;20861;-43
2022/10/26 03:45:39;;;;;;;2.73;2.47;;;;;;;;;;5052974;28;20489;-43
2022/10/26 03:48:05;;;;;;;2.73;2.53;;;;;;;;;;5052785;28;20793;-43
2022/10/26 03:50:31;;;;;;;6.70;2.20;;;;;;;;;;5052274;28;20432;-43
2022/10/26 03:52:57;;;;;;;3.73;1.97;;;;;;;;;;5053008;28;20393;-42
2022/10/26 03:55:23;;;;;;;4.40;1.93;;;;;;;;;;5052781;28;20901;-43
2022/10/26 03:57:49;;;;;;;4.37;2.30;;;;;;;;;;5052731;28;20460;-43
2022/10/26 04:00:16;;;;;;;2.43;2.10;;;;;;;;;;5052093;28;20439;-42
2022/10/26 04:02:52;;;;;;;3.67;1.93;;;;;;;;;;5052428;28;20461;-42
2022/10/26 04:05:18;;;;;;;8.33;2.40;;;;;;;;;;5052613;28;20397;-43
2022/10/26 04:07:44;;;;;;;7.00;1.90;;;;;;;;;;5051920;28;20410;-43
2022/10/26 04:10:10;;;;;;;4.20;1.80;;;;;;;;;;5051924;28;20565;-42
2022/10/26 04:12:39;;;;;;;5.13;2.00;;;;;;;;;;5052373;28;20402;-42
2022/10/26 04:15:06;;;;;;;2.73;2.33;;;;;;;;;;5052344;28;20463;-43
2022/10/26 04:17:32;;;;;;;5.27;2.00;;;;;;;;;;5052400;28;20454;-43
2022/10/26 04:19:58;;;;;;;3.43;1.73;;;;;;;;;;5052169;28;20823;-43
2022/10/26 04:22:23;;;;;;;6.50;2.50;;;;;;;;;;5051970;28;20893;-43
2022/10/26 04:24:49;;;;;;;5.70;2.17;;;;;;;;;;5052403;28;20829;-43
2022/10/26 04:27:15;;;;;;;2.70;1.93;;;;;;;;;;5052272;28;20851;-43
2022/10/26 04:29:41;;;;;;;2.90;1.60;;;;;;;;;;5051705;28;20463;-43
2022/10/26 04:32:07;;;;;;;5.83;2.10;;;;;;;;;;5051935;28;20400;-42
2022/10/26 04:34:33;;;;;;;3.73;2.00;;;;;;;;;;5052196;28;20405;-42
2022/10/26 04:36:59;;;;;;;3.50;1.73;;;;;;;;;;5052359;28;20575;-43
2022/10/26 04:39:25;;;;;;;6.43;1.83;;;;;;;;;;5052010;28;20434;-43
2022/10/26 04:41:51;;;;;;;2.43;2.03;;;;;;;;;;5051399;28;20758;-42
2022/10/26 04:44:17;;;;;;;2.27;1.83;;;;;;;;;;5052052;28;20449;-43
2022/10/26 04:46:43;;;;;;;4.33;2.00;;;;;;;;;;5051962;28;20403;-42
2022/10/26 04:49:09;;;;;;;3.20;1.93;;;;;;;;;;5051827;28;20468;-42
2022/10/26 04:51:35;;;;;;;2.40;1.87;;;;;;;;;;5050876;28;20393;-42
2022/10/26 04:54:02;;;;;;;2.07;1.63;;;;;;;;;;5051448;28;20491;-43
2022/10/26 04:56:28;;;;;;;1.80;1.70;;;;;;;;;;5051813;28;20401;-43
2022/10/26 04:58:54;;;;;;;3.27;1.63;;;;;;;;;;5051892;28;20435;-42
2022/10/26 05:01:20;;;;;;;3.97;1.70;;;;;;;;;;5051254;28;20456;-42
2022/10/26 05:03:50;;;;;;;3.70;1.40;;;;;;;;;;5051891;28;20440;-42
2022/10/26 05:06:16;;;;;;;3.57;1.70;;;;;;;;;;5051772;28;20403;-42
2022/10/26 05:08:42;;;;;;;3.30;1.60;;;;;;;;;;5051576;28;20452;-42
2022/10/26 05:11:08;;;;;;;5.07;1.47;;;;;;;;;;5051161;28;20758;-42
2022/10/26 05:13:34;;;;;;;4.03;1.80;;;;;;;;;;5051753;28;20841;-42
2022/10/26 05:16:00;;;;;;;6.13;1.63;;;;;;;;;;5051790;28;20371;-42
2022/10/26 05:18:26;;;;;;;2.97;1.67;;;;;;;;;;5053641;28;20448;-42
2022/10/26 05:20:52;;;;;;;1.67;1.40;;;;;;;;;;5055224;28;20574;-43
2022/10/26 05:23:18;;;;;;;2.80;1.70;;;;;;;;;;5055612;28;20416;-42
2022/10/26 05:25:45;;;;;;;4.77;1.60;;;;;;;;;;5055765;28;20413;-42
2022/10/26 05:28:12;;;;;;;4.37;1.57;;;;;;;;;;5055500;28;20405;-42
2022/10/26 05:30:38;;;;;;;2.80;1.50;;;;;;;;;;5054992;28;20396;-42
2022/10/26 05:33:06;;;;;;;1.80;1.33;;;;;;;;;;5055738;28;20402;-42
2022/10/26 05:35:32;;;;;;;1.57;1.47;;;;;;;;;;5055436;28;20398;-42
2022/10/26 05:37:59;;;;;;;2.03;1.67;;;;;;;;;;5055349;28;20404;-43
2022/10/26 05:40:25;;;;;;;2.03;1.80;;;;;;;;;;5054735;28;20833;-42
2022/10/26 05:42:51;;;;;;;1.53;1.43;;;;;;;;;;5055388;28;20437;-42
2022/10/26 05:45:18;;;;;;;1.83;1.60;;;;;;;;;;5055363;28;20383;-43
2022/10/26 05:47:44;;;;;;;1.50;1.40;;;;;;;;;;5055635;28;20459;-42
2022/10/26 05:50:11;;;;;;;2.90;1.70;;;;;;;;;;5054573;28;20461;-42
2022/10/26 05:52:40;;;;;;;1.47;1.30;;;;;;;;;;5055210;28;20915;-42
2022/10/26 05:55:10;;;;;;;6.43;1.63;;;;;;;;;;5055183;28;20421;-42
2022/10/26 05:57:36;;;;;;;3.47;1.30;;;;;;;;;;5055017;28;20869;-42
2022/10/26 06:00:10;;;;;;;4.07;2.23;;;;;;;;;;5054808;28;20963;-42
2022/10/26 06:02:42;;;;;;;4.50;1.60;;;;;;;;;;5054822;28;20405;-42
2022/10/26 06:05:10;;;;;;;1.43;1.33;;;;;;;;;;5054931;28;20471;-42
2022/10/26 06:07:36;;;;;;;1.50;1.40;;;;;;;;;;5054990;28;20405;-42
2022/10/26 06:10:03;;;;;;;2.37;1.60;;;;;;;;;;5053808;28;20465;-42
2022/10/26 06:12:29;;;;;;;3.20;1.57;;;;;;;;;;5053875;28;20913;-42
2022/10/26 06:14:55;;;;;;;3.80;1.40;;;;;;;;;;5054306;28;20401;-42
2022/10/26 06:17:34;;;;;;;2.37;1.30;;;;;;;;;;5054154;28;20911;-42
2022/10/26 06:20:03;;;;;;;2.20;1.47;;;;;;;;;;5054026;28;20421;-43
2022/10/26 06:22:29;;;;;;;1.97;1.63;;;;;;;;;;5053611;28;20405;-43
2022/10/26 06:25:11;;;;;;;1.40;1.30;;;;;;;;;;5054104;28;20482;-42
2022/10/26 06:27:56;;;;;;;2.50;1.47;;;;;;;;;;5054062;28;20376;-42
2022/10/26 06:30:22;;;;;;;1.70;1.60;;;;;;;;;;5052446;28;20517;-42
2022/10/26 06:32:49;;;;;;;3.50;1.90;;;;;;;;;;5056029;28;20834;-44
2022/10/26 06:35:24;;;;;;;3.90;1.90;;;;;;;;;;5055416;28;20409;-46
2022/10/26 06:37:52;;;;;;;1.83;1.63;;;;;;;;;;5055789;28;20412;-45
2022/10/26 06:40:18;;;;;;;2.60;1.53;;;;;;;;;;5054795;28;20491;-45
2022/10/26 06:42:44;;;;;;;3.53;1.93;;;;;;;;;;5055538;28;20410;-45
2022/10/26 06:45:13;;;;;;;1.53;1.30;;;;;;;;;;5054874;28;20405;-45
2022/10/26 06:47:45;;;;;;;2.20;1.63;;;;;;;;;;5055170;28;20380;-46
2022/10/26 06:50:33;;;;;;;1.70;1.57;;;;;;;;;;5054046;28;20438;-45
2022/10/26 06:53:21;;;;;;;2.37;1.30;;;;;;;;;;5054995;28;20391;-43
2022/10/26 06:55:49;;;;;;;5.60;1.80;;;;;;;;;;5055037;28;20394;-46
2022/10/26 06:58:18;;;;;;;3.63;1.60;;;;;;;;;;5054479;28;20383;-45
2022/10/26 07:00:45;;;;;;;5.60;3.40;;;;;;;;;;5047486;28;20436;-42
2022/10/26 07:03:11;;;;;;;2.67;1.40;;;;;;;;;;5036036;28;20427;-42
2022/10/26 07:05:37;;;;;;;1.40;1.30;;;;;;;;;;5033752;28;20370;-42
2022/10/26 07:08:04;;;;;;;5.07;1.70;;;;;;;;;;5034038;28;20398;-42
2022/10/26 07:10:30;;;;;;;1.87;1.77;;;;;;;;;;5033104;28;20437;-42
2022/10/26 07:12:56;;;;;;;2.00;1.47;;;;;;;;;;5033762;28;20398;-42
2022/10/26 07:15:23;;;;;;;3.70;1.93;;;;;;;;;;5033643;28;20762;-42
2022/10/26 07:17:49;;;;;;;10.20;1.80;;;;;;;;;;5033776;28;20450;-42
2022/10/26 07:20:16;;;;;;;2.13;1.70;;;;;;;;;;5033083;28;20766;-42
2022/10/26 07:22:42;;;;;;;3.83;1.87;;;;;;;;;;5043256;28;20410;-44
2022/10/26 07:25:08;;;;;;;4.47;1.57;;;;;;;;;;5052982;28;20401;-42
2022/10/26 07:27:35;;;;;;;1.73;1.43;;;;;;;;;;5053072;28;20879;-42
2022/10/26 07:30:01;;;;;;;1.80;1.67;;;;;;;;;;5053055;28;20432;-42
2022/10/26 07:32:27;;;;;;;5.13;2.20;;;;;;;;;;5052565;28;20400;-41
2022/10/26 07:34:53;;;;;;;2.37;1.53;;;;;;;;;;5052973;28;20482;-42
2022/10/26 07:37:19;;;;;;;1.63;1.40;;;;;;;;;;5053381;28;20416;-42
2022/10/26 07:39:45;;;;;;;4.30;1.60;;;;;;;;;;5052775;28;20413;-42
2022/10/26 07:42:11;;;;;;;2.80;1.70;;;;;;;;;;5051646;28;20723;-42
2022/10/26 07:44:37;;;;;;;4.60;1.73;;;;;;;;;;5052699;28;20481;-43
2022/10/26 07:47:03;;;;;;;2.53;1.47;;;;;;;;;;5052937;28;20689;-41
2022/10/26 07:49:29;;;;;;;2.20;1.20;;;;;;;;;;5052832;28;20465;-41
2022/10/26 07:51:55;;;;;;;2.33;1.40;;;;;;;;;;5052367;28;20381;-41
2022/10/26 07:54:22;;;;;;;2.33;1.10;;;;;;;;;;5052663;28;20404;-41
2022/10/26 07:56:51;;;;;;;1.40;1.30;;;;;;;;;;5052745;28;20434;-44
2022/10/26 07:59:17;;;;;;;2.27;1.30;;;;;;;;;;5052789;28;20924;-41
2022/10/26 08:01:43;;;;;;;1.90;1.50;;;;;;;;;;5051976;28;20376;-40
2022/10/26 08:04:09;;;;;;;1.73;1.60;;;;;;;;;;5052728;28;20439;-40
2022/10/26 08:06:35;;;;;;;2.60;1.20;;;;;;;;;;5052582;28;20470;-41
2022/10/26 08:09:01;;;;;;;1.53;1.40;;;;;;;;;;5052410;28;21017;-40
2022/10/26 08:11:29;;;;;;;1.70;1.60;;;;;;;;;;5052057;28;20407;-41
2022/10/26 08:13:55;;;;;;;1.47;1.37;;;;;;;;;;5052382;28;20465;-41
2022/10/26 08:16:22;;;;;;;1.83;1.30;;;;;;;;;;5052121;28;20378;-41
2022/10/26 08:18:52;;;;;;;4.60;1.43;;;;;;;;;;5052668;28;20448;-41
2022/10/26 08:21:18;;;;;;;2.03;1.40;;;;;;;;;;5051743;28;20425;-41
2022/10/26 08:23:44;;;;;;;3.30;1.60;;;;;;;;;;5044543;28;20986;-41
2022/10/26 08:26:10;;;;;;;4.80;1.73;;;;;;;;;;5038818;28;20799;-44
2022/10/26 08:28:36;;;;;;;2.60;1.50;;;;;;;;;;5032492;28;20515;-44
2022/10/26 08:31:03;;;;;;;4.30;1.80;;;;;;;;;;5031792;28;20483;-42
2022/10/26 08:33:29;;;;;;;3.27;1.80;;;;;;;;;;5031586;28;20393;-42
2022/10/26 08:35:59;;;;;;;3.43;1.77;;;;;;;;;;5031384;28;20408;-42
2022/10/26 08:38:25;;;;;;;5.63;2.13;;;;;;;;;;5032618;28;20805;-42
2022/10/26 08:40:52;;;;;;;3.43;1.50;;;;;;;;;;5031487;28;20393;-42
2022/10/26 08:43:25;;;;;;;3.27;1.83;;;;;;;;;;5031878;28;20888;-42
2022/10/26 08:45:55;;;;;;;2.80;1.60;;;;;;;;;;5031992;28;20393;-42
2022/10/26 08:48:25;;;;;;;2.50;2.00;;;;;;;;;;5032358;28;20414;-42
2022/10/26 08:50:55;;;;;;;6.40;1.80;;;;;;;;;;5031484;28;20429;-42
2022/10/26 08:53:28;;;;;;;2.03;1.60;;;;;;;;;;5031925;28;20422;-42
2022/10/26 08:56:01;;;;;;;2.47;1.70;;;;;;;;;;5031804;28;20485;-42
2022/10/26 08:58:29;;;;;;;11.07;2.20;;;;;;;;;;5032020;28;20464;-42
2022/10/26 09:00:55;;;;;;;1.40;1.30;;;;;;;;;;5031380;28;20417;-42
2022/10/26 09:03:21;;;;;;;1.80;1.40;;;;;;;;;;5031900;28;20436;-42
2022/10/26 09:05:55;;;;;;;3.37;1.73;;;;;;;;;;5031835;28;20405;-42
2022/10/26 09:08:28;;;;;;;1.93;1.73;;;;;;;;;;5031621;28;20412;-42
2022/10/26 09:11:09;;;;;;;3.70;1.53;;;;;;;;;;5031624;28;20394;-42
2022/10/26 09:13:57;;;;;;;3.27;1.50;;;;;;;;;;5031820;28;20473;-42
2022/10/26 09:16:32;;;;;;;2.20;2.00;;;;;;;;;;5031708;28;20394;-42
2022/10/26 09:19:10;;;;;;;2.10;1.53;;;;;;;;;;5031737;28;20418;-42
2022/10/26 09:21:59;;;;;;;7.43;1.80;;;;;;;;;;5032407;28;20505;-42
2022/10/26 09:24:31;;;;;;;4.30;2.53;;;;;;;;;;5051611;28;20503;-41
2022/10/26 09:26:57;;;;;;;4.27;1.93;;;;;;;;;;5051792;28;20824;-42
2022/10/26 09:29:26;;;;;;;4.27;1.77;;;;;;;;;;5047630;28;20461;-44
2022/10/26 09:31:54;;;;;;;5.30;1.80;;;;;;;;;;5038237;28;20492;-42
2022/10/26 09:34:25;;;;;;;5.53;2.10;;;;;;;;;;5051821;28;20416;-41
2022/10/26 09:36:53;;;;;;;1.93;1.67;;;;;;;;;;5047575;28;20421;-45
2022/10/26 09:39:30;;;;;;;2.00;1.50;;;;;;;;;;5052548;28;20487;-44
2022/10/26 09:41:58;;;;;;;6.10;1.80;;;;;;;;;;5050814;28;20414;-44
2022/10/26 10:50:31;;;;;;;4.83;2.00;;;;;;;;;;5088424;27;20989;-45
2022/10/26 10:53:18;;;;;;;3.37;1.80;;;;;;;;;;5089152;28;20399;-45
2022/10/26 10:55:49;;;;;;;2.43;2.00;;;;;;;;;;5089544;28;20396;-45
2022/10/26 10:58:21;;;;;;;3.80;2.00;;;;;;;;;;5089307;28;20873;-45
2022/10/26 11:00:48;;;;;;;5.27;2.50;;;;;;;;;;5088488;28;20427;-45
2022/10/26 11:03:29;;;;;;;4.60;1.90;;;;;;;;;;5088975;28;20971;-45
2022/10/26 11:06:08;;;;;;;2.80;2.00;;;;;;;;;;5088151;28;20453;-44
2022/10/26 11:08:46;;;;;;;5.30;2.20;;;;;;;;;;5086960;28;20449;-45
2022/10/26 11:11:15;;;;;;;3.73;2.20;;;;;;;;;;5087396;28;20935;-45
2022/10/26 11:13:46;;;;;;;7.87;2.60;;;;;;;;;;5087779;28;20419;-45
2022/10/26 11:16:15;;;;;;;6.77;1.90;;;;;;;;;;5088548;28;20473;-45
2022/10/26 11:18:43;;;;;;;5.80;1.90;;;;;;;;;;5088501;28;20547;-45
2022/10/26 11:21:19;;;;;;;5.83;2.43;;;;;;;;;;5088092;28;20431;-45
2022/10/26 11:23:48;;;;;;;3.67;2.00;;;;;;;;;;5088163;28;20403;-45
2022/10/26 11:26:17;;;;;;;4.47;3.17;;;;;;;;;;5088286;28;20442;-44
2022/10/26 11:28:43;;;;;;;6.33;2.47;;;;;;;;;;5088230;28;20407;-45
2022/10/26 11:31:25;;;;;;;8.60;1.90;;;;;;;;;;5087950;28;20969;-45
2022/10/26 11:34:08;;;;;;;4.83;2.10;;;;;;;;;;5088355;28;20192;-44
2022/10/26 11:36:35;;;;;;;4.60;2.23;;;;;;;;;;5088170;28;20456;-45
2022/10/26 11:39:11;;;;;;;6.13;1.83;;;;;;;;;;5088005;28;20450;-45
2022/10/26 11:41:48;;;;;;;7.70;2.30;;;;;;;;;;5088080;28;20410;-45
2022/10/26 11:44:40;;;;;;;4.73;2.30;;;;;;;;;;5088027;28;20552;-45
2022/10/26 11:47:13;;;;;;;5.90;2.13;;;;;;;;;;5086708;28;20408;-45
2022/10/26 11:49:39;;;;;;;6.00;2.03;;;;;;;;;;5084364;28;20498;-44
2022/10/26 11:52:16;;;;;;;5.60;2.60;;;;;;;;;;5072958;28;20412;-45
2022/10/26 11:54:56;;;;;;;5.00;2.00;;;;;;;;;;5074750;28;20396;-45
2022/10/26 11:57:23;;;;;;;3.43;1.70;;;;;;;;;;5074166;28;20412;-45
2022/10/26 12:00:00;;;;;;;5.00;2.17;;;;;;;;;;5073684;28;20452;-45
2022/10/26 12:02:26;;;;;;;2.10;1.70;;;;;;;;;;5074499;28;20444;-45
2022/10/26 12:05:01;;;;;;;4.67;1.90;;;;;;;;;;5074567;28;20440;-45
2022/10/26 12:07:29;;;;;;;8.37;2.20;;;;;;;;;;5073944;28;20884;-44
2022/10/26 12:09:55;;;;;;;4.80;2.00;;;;;;;;;;5073600;28;20428;-45
2022/10/26 12:12:21;;;;;;;4.23;1.83;;;;;;;;;;5074009;28;20396;-45
2022/10/26 12:15:08;;;;;;;4.30;1.80;;;;;;;;;;5072872;28;20430;-45
2022/10/26 12:17:41;;;;;;;4.77;2.13;;;;;;;;;;5051473;28;20427;-45
2022/10/26 12:20:10;;;;;;;9.57;2.27;;;;;;;;;;5072895;28;20443;-45
2022/10/26 12:22:38;;;;;;;4.93;2.10;;;;;;;;;;5071851;28;20462;-45
2022/10/26 12:25:13;;;;;;;3.70;1.83;;;;;;;;;;5073748;28;20401;-45
2022/10/26 12:27:39;;;;;;;5.37;1.90;;;;;;;;;;5073720;28;20754;-45
2022/10/26 12:30:11;;;;;;;3.10;2.17;;;;;;;;;;5073432;28;20506;-44
2022/10/26 12:32:39;;;;;;;6.40;2.00;;;;;;;;;;5073550;28;20528;-45
2022/10/26 12:35:24;;;;;;;5.60;1.87;;;;;;;;;;5073469;28;20488;-45
2022/10/26 12:37:50;;;;;;;3.73;1.80;;;;;;;;;;5073715;28;20416;-45
2022/10/26 12:40:31;;;;;;;6.03;2.40;;;;;;;;;;5063349;28;20846;-46
2022/10/26 12:42:58;;;;;;;2.13;1.80;;;;;;;;;;5069689;28;20410;-45
2022/10/26 12:45:24;;;;;;;5.93;1.93;;;;;;;;;;5070407;28;21104;-45
2022/10/26 12:47:50;;;;;;;2.90;1.73;;;;;;;;;;5069960;28;20507;-45
2022/10/26 12:50:34;;;;;;;3.00;2.00;;;;;;;;;;5067359;28;20531;-45
2022/10/26 12:53:07;;;;;;;4.10;1.90;;;;;;;;;;5071026;28;20945;-44
2022/10/26 12:55:47;;;;;;;5.63;2.03;;;;;;;;;;5066320;28;20420;-45
2022/10/26 12:58:19;;;;;;;2.97;2.00;;;;;;;;;;5064744;28;20444;-45
2022/10/26 13:00:52;;;;;;;5.57;1.93;;;;;;;;;;5070603;28;20428;-45
2022/10/26 13:03:21;;;;;;;7.10;1.83;;;;;;;;;;5070843;28;20436;-45
2022/10/26 13:06:07;;;;;;;3.73;1.97;;;;;;;;;;5070397;28;20400;-44
2022/10/26 13:08:44;;;;;;;6.23;1.83;;;;;;;;;;5071544;28;20392;-44
2022/10/26 13:11:43;;;;;;;6.03;2.00;;;;;;;;;;5070308;28;20436;-45
2022/10/26 13:14:19;;;;;;;5.63;2.00;;;;;;;;;;5050593;28;20420;-45
2022/10/26 13:16:45;;;;;;;5.93;2.17;;;;;;;;;;5072097;28;20406;-44
2022/10/26 13:19:26;;;;;;;3.67;1.60;;;;;;;;;;5071984;28;20918;-44
2022/10/26 13:21:53;;;;;;;2.77;1.73;;;;;;;;;;5055593;28;20924;-45
2022/10/26 13:24:21;;;;;;;2.30;1.67;;;;;;;;;;5071944;28;20570;-45
2022/10/26 13:27:06;;;;;;;5.87;1.90;;;;;;;;;;5072112;28;20772;-45
2022/10/26 13:29:33;;;;;;;3.00;1.63;;;;;;;;;;5071459;28;20462;-45
2022/10/26 13:31:59;;;;;;;3.93;1.30;;;;;;;;;;5070191;28;20416;-44
2022/10/26 13:34:28;;;;;;;3.63;1.80;;;;;;;;;;5071780;28;20895;-45
2022/10/26 13:36:54;;;;;;;2.83;1.20;;;;;;;;;;5071693;28;20404;-45
2022/10/26 13:39:23;;;;;;;7.50;1.67;;;;;;;;;;5071956;28;20456;-45
2022/10/26 13:41:51;;;;;;;1.80;1.43;;;;;;;;;;5064509;28;20424;-45
2022/10/26 13:44:27;;;;;;;6.10;1.50;;;;;;;;;;5060827;28;20756;-45
2022/10/26 13:46:59;;;;;;;5.33;1.40;;;;;;;;;;5071443;28;20458;-45
2022/10/26 13:52:02;;;;;;;1.70;1.23;;;;;;;;;;5521995;23;20471;-47
2022/10/26 13:54:31;;;;;;;5.57;1.30;;;;;;;;;;4988554;28;20956;-44
2022/10/26 13:57:12;;;;;;;5.50;2.77;;;;;;;;;;4991956;28;20428;-46
2022/10/26 13:59:41;;;;;;;2.53;1.40;;;;;;;;;;4992366;28;20538;-45
2022/10/26 14:02:19;;;;;;;6.93;1.63;;;;;;;;;;4991138;28;20413;-45
2022/10/26 14:04:51;;;;;;;4.03;1.67;;;;;;;;;;4993377;28;20438;-45
2022/10/26 14:07:22;;;;;;;2.13;1.03;;;;;;;;;;4991596;28;20411;-45
2022/10/26 14:09:55;;;;;;;2.33;1.90;;;;;;;;;;5008376;28;20416;-49
2022/10/26 14:12:22;;;;;;;10.33;3.07;;;;;;;;;;4993174;28;20490;-48
2022/10/26 14:14:48;;;;;;;3.57;1.70;;;;;;;;;;4993059;28;20981;-47
2022/10/26 14:17:21;;;;;;;7.90;2.10;;;;;;;;;;4993392;28;20435;-47
2022/10/26 14:19:48;;;;;;;3.60;1.57;;;;;;;;;;4992352;28;20566;-48
2022/10/26 14:22:26;;;;;;;6.73;1.40;;;;;;;;;;4992011;28;20835;-49
2022/10/26 14:24:53;;;;;;;1.60;1.50;;;;;;;;;;4992696;28;21120;-47
2022/10/26 14:27:24;;;;;;;4.40;1.53;;;;;;;;;;4992938;28;20404;-48
2022/10/26 14:29:54;;;;;;;1.97;1.40;;;;;;;;;;4992834;28;20411;-49
2022/10/26 14:32:21;;;;;;;2.43;1.40;;;;;;;;;;4992760;28;20511;-47
2022/10/26 14:34:47;;;;;;;3.40;1.67;;;;;;;;;;4993045;28;20951;-47
2022/10/26 14:37:18;;;;;;;4.93;1.87;;;;;;;;;;4992872;28;20488;-47
2022/10/26 14:39:49;;;;;;;1.70;1.60;;;;;;;;;;4992497;28;20455;-48
2022/10/26 14:42:19;;;;;;;2.80;1.50;;;;;;;;;;4992903;28;20450;-48
2022/10/26 14:44:45;;;;;;;2.33;1.70;;;;;;;;;;4992815;28;20936;-47
2022/10/26 14:47:23;;;;;;;5.17;1.90;;;;;;;;;;4992421;28;20392;-49
2022/10/26 14:49:49;;;;;;;3.10;1.70;;;;;;;;;;4992169;28;20782;-48
2022/10/26 14:52:19;;;;;;;3.33;2.27;;;;;;;;;;4991523;28;20420;-48
2022/10/26 14:54:56;;;;;;;2.50;1.53;;;;;;;;;;4992054;28;20431;-48
2022/10/26 14:57:32;;;;;;;2.90;1.40;;;;;;;;;;4992093;28;20407;-48
2022/10/26 15:00:12;;;;;;;7.60;2.97;;;;;;;;;;4992388;28;20460;-47
2022/10/26 15:02:38;;;;;;;6.63;1.63;;;;;;;;;;4991609;28;20502;-48
2022/10/26 15:05:17;;;;;;;1.57;1.40;;;;;;;;;;4992391;28;20454;-48
2022/10/26 15:07:44;;;;;;;5.87;1.50;;;;;;;;;;4992297;28;20400;-49
2022/10/26 15:10:29;;;;;;;2.80;1.60;;;;;;;;;;4992483;28;20481;-46
2022/10/26 15:12:54;;;;;;;3.83;1.77;;;;;;;;;;4991888;28;20454;-47
2022/10/26 15:15:21;;;;;;;2.13;1.60;;;;;;;;;;4992170;28;20491;-46
2022/10/26 15:17:49;;;;;;;1.97;1.53;;;;;;;;;;4992188;28;20400;-49
2022/10/26 15:20:17;;;;;;;2.83;1.83;;;;;;;;;;4992611;28;20400;-47
2022/10/26 15:22:49;;;;;;;6.70;1.80;;;;;;;;;;4992186;28;20424;-46
2022/10/26 15:25:25;;;;;;;5.37;1.60;;;;;;;;;;4994415;28;20396;-49
2022/10/26 15:27:51;;;;;;;3.03;2.23;;;;;;;;;;4996307;28;20453;-48
2022/10/26 15:30:24;;;;;;;3.80;2.13;;;;;;;;;;4996437;28;20437;-48
2022/10/26 15:32:51;;;;;;;1.90;1.73;;;;;;;;;;4995998;28;20920;-49
2022/10/26 15:35:17;;;;;;;1.93;1.70;;;;;;;;;;4996256;28;20545;-47
2022/10/26 15:37:43;;;;;;;3.43;1.70;;;;;;;;;;4995933;28;20908;-49
2022/10/26 15:40:09;;;;;;;6.47;2.23;;;;;;;;;;4988408;28;20552;-46
2022/10/26 15:42:37;;;;;;;2.17;1.97;;;;;;;;;;4996393;28;20440;-43
2022/10/26 15:45:03;;;;;;;4.07;1.80;;;;;;;;;;4995254;28;20405;-44
2022/10/26 15:47:31;;;;;;;2.07;1.97;;;;;;;;;;4995397;28;20408;-43
2022/10/26 15:49:57;;;;;;;7.23;2.27;;;;;;;;;;4995026;28;20906;-43
2022/10/26 15:52:23;;;;;;;2.50;1.93;;;;;;;;;;4994744;28;20475;-43
2022/10/26 15:54:49;;;;;;;2.10;1.90;;;;;;;;;;4995277;28;20939;-44
2022/10/26 15:57:15;;;;;;;2.77;2.57;;;;;;;;;;4995172;28;20806;-45
2022/10/26 15:59:41;;;;;;;2.53;2.20;;;;;;;;;;4995356;28;20825;-43
2022/10/26 16:02:15;;;;;;;4.73;2.20;;;;;;;;;;4995332;28;20478;-43
2022/10/26 16:04:40;;;;;;;5.63;2.27;;;;;;;;;;4994947;28;20425;-43
2022/10/26 16:07:11;;;;;;;2.27;2.07;;;;;;;;;;4994772;28;20435;-43